Time;durP1;ratioP1;P1;durP2;ratioP2;P2;SDS_P1;SDS_P2;PMS_P1;PMS_P2;Temp;Humidity;BMP_temperature;BMP_pressure;BME280_temperature;BME280_humidity;BME280_pressure;Samples;Min_cycle;Max_cycle;Signal;HPM_P1;HPM_P2
2023/02/12 00:01:29;;;;;;;41.97;24.13;;;2.40;99.90;;;;;;5031401;28;20031;-85
2023/02/12 00:03:55;;;;;;;39.77;23.13;;;2.40;99.90;;;;;;5032199;28;20393;-85
2023/02/12 00:06:21;;;;;;;39.53;23.63;;;2.40;99.90;;;;;;5032388;28;20025;-85
2023/02/12 00:08:52;;;;;;;37.73;23.17;;;2.40;99.90;;;;;;5030899;28;20040;-85
2023/02/12 00:11:23;;;;;;;41.60;24.17;;;2.40;99.90;;;;;;5032345;28;20029;-85
2023/02/12 00:13:49;;;;;;;40.80;24.53;;;2.40;99.90;;;;;;5030875;28;20040;-85
2023/02/12 00:16:18;;;;;;;39.43;23.70;;;2.40;99.90;;;;;;5031487;28;20048;-85
2023/02/12 00:18:44;;;;;;;43.03;25.27;;;2.40;99.90;;;;;;5062720;28;20033;-85
2023/02/12 00:21:11;;;;;;;44.13;26.40;;;2.40;99.90;;;;;;5031957;28;20489;-85
2023/02/12 00:23:39;;;;;;;42.40;25.83;;;2.40;99.90;;;;;;5030816;28;20028;-85
2023/02/12 00:26:10;;;;;;;44.70;25.03;;;2.40;99.90;;;;;;5031820;28;20036;-85
2023/02/12 00:28:36;;;;;;;44.93;24.93;;;2.40;99.90;;;;;;5031523;28;20065;-85
2023/02/12 00:31:11;;;;;;;39.33;23.70;;;2.40;99.90;;;;;;5032298;28;20033;-85
2023/02/12 00:33:36;;;;;;;38.42;23.63;;;2.40;99.90;;;;;;5031997;28;20052;-85
2023/02/12 00:36:02;;;;;;;40.10;23.60;;;2.40;99.90;;;;;;5031235;28;20171;-85
2023/02/12 00:38:28;;;;;;;38.27;22.33;;;2.40;99.90;;;;;;5030307;28;20029;-85
2023/02/12 00:40:53;;;;;;;40.93;24.40;;;2.40;99.90;;;;;;5030712;28;20356;-85
2023/02/12 00:43:19;;;;;;;38.93;23.03;;;2.40;99.90;;;;;;5030332;28;20036;-85
2023/02/12 00:45:45;;;;;;;36.97;23.27;;;2.40;99.90;;;;;;5032550;28;20088;-85
2023/02/12 00:48:12;;;;;;;38.83;22.57;;;2.40;99.90;;;;;;5029919;28;20026;-85
2023/02/12 00:50:40;;;;;;;39.53;23.30;;;2.40;99.90;;;;;;5030751;28;20021;-85
2023/02/12 00:53:06;;;;;;;39.93;23.80;;;2.40;99.90;;;;;;5031378;28;20032;-85
2023/02/12 00:55:32;;;;;;;39.33;22.53;;;2.40;99.90;;;;;;5031321;28;20029;-85
2023/02/12 00:57:57;;;;;;;35.67;21.33;;;2.40;99.90;;;;;;5031031;28;20686;-85
2023/02/12 01:00:23;;;;;;;38.17;23.13;;;2.40;99.90;;;;;;5031137;28;20151;-85
2023/02/12 01:02:48;;;;;;;41.13;22.97;;;2.40;99.90;;;;;;5031724;28;20032;-85
2023/02/12 01:05:14;;;;;;;40.53;23.37;;;2.40;99.90;;;;;;5031117;28;20070;-85
2023/02/12 01:07:39;;;;;;;35.60;22.13;;;2.30;99.90;;;;;;5030726;28;20033;-85
2023/02/12 01:10:06;;;;;;;38.23;23.47;;;2.30;99.90;;;;;;5031827;28;20117;-85
2023/02/12 01:12:32;;;;;;;41.37;24.00;;;2.30;99.90;;;;;;5029107;28;20103;-85
2023/02/12 01:14:58;;;;;;;38.37;22.93;;;2.30;99.90;;;;;;5030831;28;20037;-85
2023/02/12 01:17:24;;;;;;;38.47;22.67;;;2.30;99.90;;;;;;5031152;28;20110;-85
2023/02/12 01:19:49;;;;;;;36.07;23.17;;;2.30;99.90;;;;;;5030475;28;20032;-85
2023/02/12 01:22:15;;;;;;;41.10;23.80;;;2.30;99.90;;;;;;5030532;28;20048;-85
2023/02/12 01:24:41;;;;;;;38.67;23.17;;;2.30;99.90;;;;;;5031460;28;20032;-85
2023/02/12 01:27:07;;;;;;;39.00;23.90;;;2.30;99.90;;;;;;5029836;28;20478;-85
2023/02/12 01:29:32;;;;;;;37.57;22.57;;;2.30;99.90;;;;;;5030227;28;20075;-85
2023/02/12 01:31:58;;;;;;;38.60;23.67;;;2.30;99.90;;;;;;5030950;28;20427;-85
2023/02/12 01:34:23;;;;;;;37.87;23.03;;;2.30;99.90;;;;;;5031777;28;20747;-85
2023/02/12 01:36:49;;;;;;;37.00;22.90;;;2.40;99.90;;;;;;5030142;28;20037;-85
2023/02/12 01:39:15;;;;;;;33.13;22.17;;;2.30;99.90;;;;;;5029736;28;20074;-85
2023/02/12 01:41:43;;;;;;;33.10;21.50;;;2.30;99.90;;;;;;5030174;28;20041;-85
2023/02/12 01:44:19;;;;;;;33.97;22.10;;;2.30;99.90;;;;;;5031542;28;20378;-85
2023/02/12 01:46:47;;;;;;;36.93;21.90;;;2.30;99.90;;;;;;5029938;28;20026;-85
2023/02/12 01:49:20;;;;;;;37.17;23.43;;;2.30;99.90;;;;;;5030913;28;20057;-85
2023/02/12 01:51:46;;;;;;;36.40;22.10;;;2.30;99.90;;;;;;5030230;28;20107;-85
2023/02/12 01:54:16;;;;;;;38.90;22.50;;;2.30;99.90;;;;;;5030003;28;20057;-85
2023/02/12 01:56:42;;;;;;;36.27;22.50;;;2.30;99.90;;;;;;5030903;28;20112;-85
2023/02/12 01:59:07;;;;;;;36.50;22.30;;;2.20;99.90;;;;;;5062049;28;20076;-85
2023/02/12 02:01:33;;;;;;;36.37;22.90;;;2.20;99.90;;;;;;5030837;28;20025;-85
2023/02/12 02:04:10;;;;;;;41.13;24.17;;;2.20;99.90;;;;;;5033860;28;20032;-85
2023/02/12 02:06:58;;;;;;;36.17;21.80;;;2.30;99.90;;;;;;5034801;28;21408;-85
2023/02/12 02:09:25;;;;;;;37.80;22.07;;;2.30;99.90;;;;;;5034591;28;20059;-85
2023/02/12 02:14:36;;;;;;;37.67;22.33;;;2.30;99.90;;;;;;5034215;28;20048;-85
2023/02/12 02:17:20;;;;;;;34.20;21.40;;;2.30;99.90;;;;;;5032273;28;20041;-85
2023/02/12 02:20:17;;;;;;;39.17;22.00;;;2.30;99.90;;;;;;5033785;28;21173;-85
2023/02/12 02:23:03;;;;;;;32.90;21.30;;;2.30;99.90;;;;;;5034151;28;20116;-85
2023/02/12 02:26:06;;;;;;;35.73;22.27;;;2.20;99.90;;;;;;5034966;28;20044;-85
2023/02/12 02:28:50;;;;;;;37.43;21.87;;;2.30;99.90;;;;;;5036569;28;20030;-85
2023/02/12 02:31:39;;;;;;;39.63;22.77;;;2.20;99.90;;;;;;5037481;28;20100;-85
2023/02/12 02:34:37;;;;;;;34.57;21.57;;;2.30;99.90;;;;;;5037810;28;20025;-85
2023/02/12 02:37:24;;;;;;;35.70;21.73;;;2.20;99.90;;;;;;5035378;28;20041;-85
2023/02/12 02:40:13;;;;;;;39.63;22.73;;;2.20;99.90;;;;;;5035121;28;20035;-85
2023/02/12 02:42:59;;;;;;;36.43;22.73;;;2.20;99.90;;;;;;5034751;28;20112;-85
2023/02/12 02:45:44;;;;;;;40.83;23.10;;;2.20;99.90;;;;;;5035340;28;20108;-85
2023/02/12 02:48:17;;;;;;;34.03;21.70;;;2.20;99.90;;;;;;5033317;28;20029;-85
2023/02/12 02:50:48;;;;;;;36.60;21.20;;;2.20;99.90;;;;;;5034386;28;20095;-85
2023/02/12 02:53:22;;;;;;;36.07;22.93;;;2.20;99.90;;;;;;5033882;28;20029;-85
2023/02/12 02:55:55;;;;;;;34.33;21.97;;;2.20;99.90;;;;;;5030899;28;20060;-85
2023/02/12 02:58:39;;;;;;;38.73;23.43;;;2.20;99.90;;;;;;5031874;28;20517;-85
2023/02/12 03:01:11;;;;;;;40.87;23.07;;;2.20;99.90;;;;;;5031942;28;20474;-85
2023/02/12 03:03:47;;;;;;;38.97;23.83;;;2.20;99.90;;;;;;5032205;28;20036;-85
2023/02/12 03:06:22;;;;;;;37.67;23.70;;;2.20;99.90;;;;;;5030506;28;20418;-85
2023/02/12 03:08:56;;;;;;;37.20;22.23;;;2.20;99.90;;;;;;5032889;28;20029;-85
2023/02/12 03:11:28;;;;;;;38.33;23.53;;;2.20;99.90;;;;;;5033333;28;20901;-85
2023/02/12 03:14:06;;;;;;;38.07;22.67;;;2.20;99.90;;;;;;5031913;28;20028;-85
2023/02/12 03:16:36;;;;;;;33.60;21.50;;;2.20;99.90;;;;;;5030822;28;21565;-85
2023/02/12 03:19:10;;;;;;;38.40;22.73;;;2.20;99.90;;;;;;5033477;28;20474;-85
2023/02/12 03:21:45;;;;;;;33.75;22.05;;;2.30;99.90;;;;;;5032899;28;20037;-85
2023/02/12 03:24:43;;;;;;;35.70;21.47;;;2.30;99.90;;;;;;5034237;28;20029;-85
2023/02/12 03:27:16;;;;;;;37.47;22.30;;;2.20;99.90;;;;;;5030842;28;20112;-85
2023/02/12 03:29:42;;;;;;;39.17;22.57;;;2.20;99.90;;;;;;5032638;28;20025;-85
2023/02/12 03:32:39;;;;;;;37.13;22.27;;;2.20;99.90;;;;;;5032971;28;20687;-85
2023/02/12 03:35:09;;;;;;;35.63;22.47;;;2.20;99.90;;;;;;5024194;28;20038;-85
2023/02/12 03:37:39;;;;;;;43.33;24.63;;;2.20;99.90;;;;;;5031418;28;20037;-85
2023/02/12 03:40:37;;;;;;;40.43;22.97;;;2.20;99.90;;;;;;5031536;28;20402;-85
2023/02/12 03:43:29;;;;;;;39.43;23.33;;;2.20;99.90;;;;;;5032645;28;20685;-85
2023/02/12 03:46:01;;;;;;;40.30;22.90;;;2.20;99.90;;;;;;5031285;28;20021;-85
2023/02/12 03:48:45;;;;;;;39.93;22.90;;;2.20;99.90;;;;;;5031688;28;20075;-85
2023/02/12 03:51:20;;;;;;;39.83;23.90;;;2.20;99.90;;;;;;5032838;28;20054;-85
2023/02/12 03:53:46;;;;;;;41.78;23.75;;;2.20;99.90;;;;;;5033287;28;20018;-85
2023/02/12 03:56:34;;;;;;;37.67;22.90;;;2.20;99.90;;;;;;5029928;28;20091;-85
2023/02/12 03:59:00;;;;;;;40.50;24.07;;;2.20;99.90;;;;;;5032154;28;20054;-85
2023/02/12 04:01:26;;;;;;;39.43;22.70;;;2.30;99.90;;;;;;5030941;28;20482;-85
2023/02/12 04:03:52;;;;;;;39.63;24.07;;;2.20;99.90;;;;;;5032523;28;20382;-85
2023/02/12 04:06:24;;;;;;;39.63;23.77;;;2.20;99.90;;;;;;5030108;28;20041;-85
2023/02/12 04:08:50;;;;;;;44.63;23.93;;;2.20;99.90;;;;;;5031776;28;20474;-85
2023/02/12 04:11:34;;;;;;;37.53;23.63;;;2.20;99.90;;;;;;5032935;28;20040;-85
2023/02/12 04:14:16;;;;;;;41.83;23.97;;;2.20;99.90;;;;;;5031218;28;20845;-85
2023/02/12 04:17:07;;;;;;;37.80;23.87;;;2.20;99.90;;;;;;5029955;28;20068;-85
2023/02/12 04:19:59;;;;;;;38.27;23.83;;;2.20;99.90;;;;;;5031637;28;20030;-85
2023/02/12 04:23:03;;;;;;;37.43;23.40;;;2.20;99.90;;;;;;5030044;28;20079;-85
2023/02/12 04:26:16;;;;;;;41.83;23.33;;;2.20;99.90;;;;;;5031825;28;20490;-85
2023/02/12 04:28:50;;;;;;;39.30;23.30;;;2.20;99.90;;;;;;5026019;28;20065;-85
2023/02/12 04:31:34;;;;;;;41.22;24.17;;;2.20;99.90;;;;;;5031893;28;20030;-85
2023/02/12 04:34:05;;;;;;;36.77;22.40;;;2.20;99.90;;;;;;5030807;28;20025;-85
2023/02/12 04:36:37;;;;;;;35.73;23.17;;;2.20;99.90;;;;;;5030623;28;20539;-85
2023/02/12 04:39:09;;;;;;;42.03;24.03;;;2.20;99.90;;;;;;5032216;28;20022;-85
2023/02/12 04:41:36;;;;;;;40.83;23.80;;;2.20;99.90;;;;;;5030908;28;20031;-85
2023/02/12 04:44:38;;;;;;;39.57;24.47;;;2.20;99.90;;;;;;5030720;28;20028;-85
2023/02/12 04:47:04;;;;;;;39.43;23.63;;;2.20;99.90;;;;;;5008307;28;20418;-85
2023/02/12 04:49:30;;;;;;;38.60;23.53;;;2.20;99.90;;;;;;5026855;28;20049;-85
2023/02/12 04:51:56;;;;;;;36.37;23.97;;;2.20;99.90;;;;;;5031579;28;20112;-85
2023/02/12 04:54:22;;;;;;;43.50;24.07;;;2.20;99.90;;;;;;5031040;28;20039;-85
2023/02/12 04:56:49;;;;;;;37.63;22.63;;;2.20;99.90;;;;;;5030543;28;20037;-85
2023/02/12 04:59:15;;;;;;;39.83;22.63;;;2.20;99.90;;;;;;5031363;28;20037;-85
2023/02/12 05:01:44;;;;;;;38.80;23.63;;;2.10;99.90;;;;;;5030513;28;20041;-85
2023/02/12 05:04:12;;;;;;;39.67;23.37;;;2.20;99.90;;;;;;5030238;28;20470;-85
2023/02/12 05:06:38;;;;;;;39.40;23.23;;;2.10;99.90;;;;;;5030610;28;20029;-85
2023/02/12 05:09:05;;;;;;;37.90;22.00;;;2.20;99.90;;;;;;5029903;28;20025;-85
2023/02/12 05:11:31;;;;;;;34.93;23.67;;;2.20;99.90;;;;;;5030782;28;20151;-85
2023/02/12 05:13:58;;;;;;;34.70;21.97;;;2.20;99.90;;;;;;5029975;28;20033;-85
2023/02/12 05:16:23;;;;;;;31.23;21.03;;;2.20;99.90;;;;;;5033989;28;20049;-85
2023/02/12 05:18:49;;;;;;;37.67;21.97;;;2.20;99.90;;;;;;5035577;28;20466;-84
2023/02/12 05:21:15;;;;;;;37.80;22.00;;;2.20;99.90;;;;;;5037800;28;20025;-85
2023/02/12 05:23:41;;;;;;;36.07;21.63;;;2.20;99.90;;;;;;5034854;28;20025;-85
2023/02/12 05:26:14;;;;;;;35.90;21.83;;;2.20;99.90;;;;;;5037682;28;20111;-85
2023/02/12 05:28:40;;;;;;;35.47;22.20;;;2.10;99.90;;;;;;5035569;28;20052;-85
2023/02/12 05:31:08;;;;;;;36.00;21.27;;;2.10;99.90;;;;;;5035266;28;20053;-85
2023/02/12 05:33:34;;;;;;;34.40;22.60;;;2.20;99.90;;;;;;5031761;28;20517;-85
2023/02/12 05:36:07;;;;;;;38.73;22.43;;;2.20;99.90;;;;;;5031786;28;20032;-85
2023/02/12 05:38:33;;;;;;;36.67;21.83;;;2.20;99.90;;;;;;5032541;28;20048;-85
2023/02/12 05:41:04;;;;;;;35.93;21.70;;;2.20;99.90;;;;;;5034466;28;20386;-85
2023/02/12 05:43:30;;;;;;;35.53;21.83;;;2.20;99.90;;;;;;5035084;28;20028;-85
2023/02/12 05:45:59;;;;;;;38.87;23.30;;;2.20;99.90;;;;;;5033141;28;20104;-85
2023/02/12 05:48:25;;;;;;;37.97;22.50;;;2.20;99.90;;;;;;5032333;28;20029;-85
2023/02/12 05:50:51;;;;;;;34.23;22.00;;;2.20;99.90;;;;;;5033777;28;20509;-85
2023/02/12 05:53:16;;;;;;;35.17;22.83;;;2.20;99.90;;;;;;5032606;28;20022;-85
2023/02/12 05:55:42;;;;;;;32.87;21.70;;;2.20;99.90;;;;;;5032795;28;20021;-85
2023/02/12 05:58:07;;;;;;;38.37;21.60;;;2.20;99.90;;;;;;5032977;28;20061;-85
2023/02/12 06:00:33;;;;;;;39.93;23.60;;;2.20;99.90;;;;;;5033514;28;20037;-85
2023/02/12 06:02:58;;;;;;;37.27;23.67;;;2.20;99.90;;;;;;5034003;28;20078;-85
2023/02/12 06:05:24;;;;;;;39.07;22.50;;;2.20;99.90;;;;;;5039062;28;20686;-85
2023/02/12 06:07:49;;;;;;;36.50;22.33;;;2.20;99.90;;;;;;5038734;28;20498;-85
2023/02/12 06:10:15;;;;;;;41.20;23.47;;;2.20;99.90;;;;;;5038833;28;20028;-85
2023/02/12 06:12:41;;;;;;;35.67;23.83;;;2.20;99.90;;;;;;5042132;28;20021;-85
2023/02/12 06:15:07;;;;;;;35.23;22.67;;;2.20;99.90;;;;;;5039482;28;20028;-85
2023/02/12 06:17:33;;;;;;;36.67;23.93;;;2.10;99.90;;;;;;5038624;28;20168;-85
2023/02/12 06:19:59;;;;;;;36.33;22.20;;;2.20;99.90;;;;;;5039916;28;20025;-85
2023/02/12 06:22:26;;;;;;;39.07;24.00;;;2.10;99.90;;;;;;5039683;28;20021;-85
2023/02/12 06:24:51;;;;;;;39.80;24.20;;;2.10;99.90;;;;;;5039939;28;20075;-85
2023/02/12 06:27:17;;;;;;;40.17;24.40;;;2.10;99.90;;;;;;5037620;28;20371;-85
2023/02/12 06:29:42;;;;;;;39.70;24.23;;;2.10;99.90;;;;;;5038898;28;20036;-85
2023/02/12 06:32:08;;;;;;;43.63;25.73;;;2.10;99.90;;;;;;5040322;28;20402;-85
2023/02/12 06:34:33;;;;;;;40.93;24.93;;;2.10;99.90;;;;;;5039245;28;20108;-85
2023/02/12 06:36:59;;;;;;;42.27;24.97;;;2.00;99.90;;;;;;5039873;28;20027;-85
2023/02/12 06:39:24;;;;;;;43.30;25.97;;;2.00;99.90;;;;;;5044237;28;20028;-88
2023/02/12 06:41:50;;;;;;;46.27;27.27;;;2.00;99.90;;;;;;5052871;28;20078;-81
2023/02/12 06:44:15;;;;;;;52.90;29.97;;;2.00;99.90;;;;;;5045177;28;20347;-80
2023/02/12 06:46:41;;;;;;;59.27;33.03;;;2.00;99.90;;;;;;5044592;28;20441;-80
2023/02/12 06:49:07;;;;;;;60.17;31.70;;;2.00;99.90;;;;;;5047729;28;20512;-80
2023/02/12 06:51:32;;;;;;;51.03;30.73;;;2.00;99.90;;;;;;5048384;28;20078;-80
2023/02/12 06:54:13;;;;;;;54.57;32.17;;;2.00;99.90;;;;;;5051379;28;20116;-80
2023/02/12 06:56:39;;;;;;;50.60;29.43;;;2.00;99.90;;;;;;5047785;28;20044;-81
2023/02/12 06:59:04;;;;;;;58.10;31.57;;;2.00;99.90;;;;;;5049825;28;20060;-80
2023/02/12 07:01:30;;;;;;;53.43;30.40;;;2.00;99.90;;;;;;5048694;28;20025;-80
2023/02/12 07:03:58;;;;;;;58.23;30.70;;;2.10;99.90;;;;;;5049196;28;20025;-81
2023/02/12 07:06:26;;;;;;;54.53;29.60;;;2.00;99.90;;;;;;5045067;28;20029;-80
2023/02/12 07:08:52;;;;;;;52.40;28.93;;;2.00;99.90;;;;;;5046087;28;20382;-80
2023/02/12 07:11:22;;;;;;;54.80;29.53;;;2.10;99.90;;;;;;5039516;28;20104;-85
2023/02/12 07:13:48;;;;;;;51.47;30.40;;;2.10;99.90;;;;;;5042294;28;20028;-85
2023/02/12 07:16:15;;;;;;;51.73;31.00;;;2.10;99.90;;;;;;5046910;28;20049;-84
2023/02/12 07:18:42;;;;;;;49.40;31.00;;;2.10;99.90;;;;;;5041052;28;20029;-84
2023/02/12 07:21:09;;;;;;;49.70;29.83;;;2.10;99.90;;;;;;5039591;28;20021;-84
2023/02/12 07:23:35;;;;;;;64.00;32.17;;;2.20;99.90;;;;;;5046879;28;20013;-86
2023/02/12 07:26:04;;;;;;;66.20;31.53;;;2.20;99.90;;;;;;5043506;28;20021;-83
2023/02/12 07:28:33;;;;;;;54.50;31.03;;;2.20;99.90;;;;;;5041350;28;20438;-82
2023/02/12 07:31:13;;;;;;;51.23;30.27;;;2.20;99.90;;;;;;5041065;28;20026;-83
2023/02/12 07:33:40;;;;;;;53.17;30.87;;;2.30;99.90;;;;;;5037776;28;20037;-83
2023/02/12 07:36:11;;;;;;;62.03;33.40;;;2.30;99.90;;;;;;5041239;28;20025;-83
2023/02/12 07:38:41;;;;;;;59.07;31.50;;;2.40;99.90;;;;;;5046871;28;20031;-83
2023/02/12 07:41:13;;;;;;;64.50;31.90;;;2.40;99.90;;;;;;5044886;28;20017;-83
2023/02/12 07:43:42;;;;;;;58.70;31.93;;;2.50;99.90;;;;;;5044130;28;20042;-82
2023/02/12 07:46:13;;;;;;;54.27;30.17;;;2.50;99.90;;;;;;5041511;28;20048;-83
2023/02/12 07:48:39;;;;;;;53.27;30.87;;;2.60;99.90;;;;;;5037641;28;20056;-83
2023/02/12 07:51:07;;;;;;;50.83;29.70;;;2.70;99.90;;;;;;5046348;28;20052;-83
2023/02/12 07:53:33;;;;;;;52.33;28.90;;;2.70;99.90;;;;;;5042702;28;20029;-83
2023/02/12 07:56:05;;;;;;;57.20;30.30;;;2.80;99.90;;;;;;5047753;28;20033;-83
2023/02/12 07:58:31;;;;;;;55.87;30.83;;;2.90;99.90;;;;;;5046411;28;20458;-83
2023/02/12 08:00:56;;;;;;;58.20;33.63;;;3.00;99.90;;;;;;5041895;28;20028;-86
2023/02/12 08:03:22;;;;;;;61.40;33.83;;;3.00;99.90;;;;;;5039600;28;20488;-86
2023/02/12 08:05:48;;;;;;;60.70;33.10;;;3.10;99.90;;;;;;5038836;28;20025;-84
2023/02/12 08:08:14;;;;;;;62.13;32.70;;;3.20;99.90;;;;;;5035806;28;20039;-87
2023/02/12 08:10:39;;;;;;;56.87;31.80;;;3.20;99.90;;;;;;5040741;28;20029;-87
2023/02/12 08:13:05;;;;;;;60.93;32.23;;;3.20;99.90;;;;;;5036353;28;20032;-86
2023/02/12 08:15:30;;;;;;;62.33;31.93;;;3.30;99.90;;;;;;5035671;28;20084;-86
2023/02/12 08:17:56;;;;;;;57.33;32.07;;;3.40;99.90;;;;;;5037572;28;20029;-86
2023/02/12 08:20:21;;;;;;;58.87;31.33;;;3.40;99.90;;;;;;5040716;28;20028;-86
2023/02/12 08:22:47;;;;;;;57.30;31.77;;;3.50;99.90;;;;;;5042844;28;20040;-86
2023/02/12 08:25:12;;;;;;;54.10;31.07;;;3.50;99.90;;;;;;5037115;28;20112;-85
2023/02/12 08:27:42;;;;;;;55.00;31.20;;;3.60;99.90;;;;;;5043253;28;20033;-88
2023/02/12 08:30:09;;;;;;;51.47;29.40;;;3.60;99.90;;;;;;5040913;28;20027;-88
2023/02/12 08:32:34;;;;;;;47.53;27.20;;;3.70;99.90;;;;;;5042410;28;20032;-88
2023/02/12 08:35:00;;;;;;;48.97;27.17;;;3.80;99.90;;;;;;5046624;28;20036;-88
2023/02/12 08:37:25;;;;;;;42.53;25.80;;;3.80;99.90;;;;;;5042840;28;20037;-88
2023/02/12 08:39:51;;;;;;;40.17;26.43;;;3.90;99.90;;;;;;5042452;28;20025;-88
2023/02/12 08:42:16;;;;;;;45.83;26.70;;;4.00;99.90;;;;;;5043465;28;20052;-88
2023/02/12 08:44:42;;;;;;;45.47;27.03;;;4.00;99.90;;;;;;5042621;28;20024;-88
2023/02/12 08:47:08;;;;;;;97.43;52.30;;;4.10;99.90;;;;;;5044757;28;20025;-88
2023/02/12 08:49:34;;;;;;;40.87;26.13;;;4.20;99.90;;;;;;5037130;28;20463;-88
2023/02/12 08:52:01;;;;;;;41.10;23.67;;;4.30;99.90;;;;;;5042386;28;20033;-88
2023/02/12 08:54:28;;;;;;;39.10;23.53;;;4.30;99.90;;;;;;5039921;28;20760;-88
2023/02/12 08:57:00;;;;;;;34.63;22.40;;;4.40;99.90;;;;;;5040460;28;20033;-88
2023/02/12 08:59:25;;;;;;;34.17;21.37;;;4.50;99.90;;;;;;5041614;28;20067;-89
2023/02/12 09:01:52;;;;;;;38.17;22.10;;;4.60;99.90;;;;;;5042419;28;20509;-88
2023/02/12 09:04:23;;;;;;;37.77;23.97;;;4.60;99.90;;;;;;5041319;28;20362;-88
2023/02/12 09:06:49;;;;;;;44.83;25.60;;;4.70;99.90;;;;;;5031807;28;20098;-89
2023/02/12 09:09:15;;;;;;;45.47;27.10;;;4.80;99.90;;;;;;5045721;28;20130;-89
2023/02/12 09:11:41;;;;;;;46.87;28.03;;;4.90;99.90;;;;;;5046161;28;20052;-88
2023/02/12 09:14:11;;;;;;;64.37;35.63;;;5.00;99.90;;;;;;5040890;28;20048;-88
2023/02/12 09:16:38;;;;;;;46.77;28.27;;;5.00;99.90;;;;;;5073225;28;20045;-88
2023/02/12 09:19:04;;;;;;;48.23;28.67;;;5.10;99.90;;;;;;5039958;28;20450;-88
2023/02/12 09:21:29;;;;;;;46.23;28.47;;;5.10;99.90;;;;;;5041014;28;20080;-88
2023/02/12 09:23:55;;;;;;;49.70;30.60;;;5.20;99.90;;;;;;5040517;28;20033;-86
2023/02/12 09:26:27;;;;;;;51.07;30.77;;;5.20;99.90;;;;;;5044544;28;20020;-85
2023/02/12 09:28:54;;;;;;;56.30;32.70;;;5.30;99.90;;;;;;5036485;28;20079;-86
2023/02/12 09:31:25;;;;;;;53.40;31.13;;;5.30;99.90;;;;;;5037758;28;20026;-87
2023/02/12 09:34:01;;;;;;;57.00;31.87;;;5.20;99.90;;;;;;5037142;28;20429;-87
2023/02/12 09:36:27;;;;;;;59.10;32.43;;;5.10;99.90;;;;;;5037134;28;20029;-86
2023/02/12 09:38:53;;;;;;;58.53;32.17;;;5.20;99.90;;;;;;5037035;28;20032;-86
2023/02/12 09:41:40;;;;;;;54.20;32.00;;;5.20;99.90;;;;;;5041844;28;20377;-86
2023/02/12 09:44:28;;;;;;;53.80;31.53;;;5.30;99.90;;;;;;5033953;28;20017;-86
2023/02/12 09:47:26;;;;;;;58.40;32.20;;;5.40;99.90;;;;;;5039198;28;20025;-86
2023/02/12 09:50:00;;;;;;;57.03;32.57;;;5.50;99.90;;;;;;5039133;28;20370;-88
2023/02/12 09:52:27;;;;;;;56.97;33.87;;;5.60;99.90;;;;;;5037350;28;20029;-87
2023/02/12 09:54:53;;;;;;;59.53;33.37;;;5.60;99.90;;;;;;5035611;28;20033;-87
2023/02/12 09:57:33;;;;;;;63.50;35.13;;;5.60;99.90;;;;;;5038927;28;20398;-87
2023/02/12 10:00:17;;;;;;;50.83;29.50;;;5.60;99.90;;;;;;5041296;28;20049;-87
2023/02/12 10:02:43;;;;;;;44.80;25.07;;;5.70;99.90;;;;;;5040069;28;20032;-87
2023/02/12 10:05:19;;;;;;;51.33;28.13;;;5.70;99.90;;;;;;5040103;28;20021;-87
2023/02/12 10:08:14;;;;;;;34.90;19.37;;;5.80;99.90;;;;;;5037785;28;20071;-87
2023/02/12 10:10:57;;;;;;;34.63;20.87;;;5.90;99.90;;;;;;5038722;28;20064;-87
2023/02/12 10:13:44;;;;;;;35.80;21.47;;;6.00;99.90;;;;;;5038497;28;20275;-87
2023/02/12 10:16:37;;;;;;;26.40;15.80;;;6.10;99.90;;;;;;5033557;28;20052;-87
2023/02/12 10:19:24;;;;;;;19.43;11.27;;;6.10;99.90;;;;;;5038350;28;20741;-87
2023/02/12 10:21:58;;;;;;;17.90;11.87;;;6.10;99.90;;;;;;5041888;28;20147;-87
2023/02/12 10:24:35;;;;;;;10.37;6.57;;;6.10;99.90;;;;;;5042293;28;20025;-87
2023/02/12 10:27:10;;;;;;;10.90;5.23;;;6.20;99.90;;;;;;5037041;28;20025;-87
2023/02/12 10:29:41;;;;;;;10.02;6.32;;;6.30;99.90;;;;;;5039819;28;20021;-87
2023/02/12 10:32:23;;;;;;;11.73;6.90;;;6.40;99.90;;;;;;5042418;28;20029;-86
2023/02/12 10:34:51;;;;;;;7.23;5.17;;;6.50;99.90;;;;;;5040804;28;20021;-87
2023/02/12 10:37:51;;;;;;;9.50;6.03;;;6.50;99.90;;;;;;5040164;28;20128;-87
2023/02/12 10:40:29;;;;;;;10.80;6.90;;;6.60;99.90;;;;;;5040820;28;20033;-87
2023/02/12 10:42:58;;;;;;;14.60;8.20;;;6.60;99.90;;;;;;5043144;28;20026;-87
2023/02/12 10:45:28;;;;;;;13.90;8.20;;;6.70;99.90;;;;;;5042392;28;20075;-87
2023/02/12 10:48:07;;;;;;;12.30;7.37;;;6.80;99.90;;;;;;5042891;28;20477;-88
2023/02/12 10:50:38;;;;;;;13.97;7.77;;;6.80;99.90;;;;;;5043166;28;20034;-87
2023/02/12 10:53:03;;;;;;;11.57;7.47;;;7.00;99.90;;;;;;5042192;28;20066;-88
2023/02/12 10:55:31;;;;;;;13.00;8.17;;;7.00;99.90;;;;;;5045279;28;20096;-88
2023/02/12 10:57:58;;;;;;;13.13;7.73;;;7.10;99.90;;;;;;5037436;28;20032;-87
2023/02/12 11:00:34;;;;;;;13.83;7.87;;;7.20;99.90;;;;;;5039330;28;20022;-86
2023/02/12 11:03:12;;;;;;;11.90;7.27;;;7.20;99.90;;;;;;5040615;28;20025;-88
2023/02/12 11:05:42;;;;;;;10.37;7.57;;;7.20;99.90;;;;;;5040915;28;20359;-88
2023/02/12 11:08:29;;;;;;;13.10;7.73;;;7.20;99.90;;;;;;5040547;28;20017;-87
2023/02/12 11:10:54;;;;;;;11.50;7.93;;;7.30;99.90;;;;;;5041704;28;20423;-88
2023/02/12 11:13:27;;;;;;;10.67;7.20;;;7.30;99.90;;;;;;5043305;28;20036;-88
2023/02/12 11:15:53;;;;;;;8.53;5.37;;;7.30;99.90;;;;;;5042872;28;20105;-88
2023/02/12 11:18:24;;;;;;;9.30;5.67;;;7.20;99.90;;;;;;5044988;28;20040;-83
2023/02/12 11:21:06;;;;;;;12.20;7.70;;;7.20;99.90;;;;;;5041282;28;20071;-85
2023/02/12 11:23:44;;;;;;;10.97;5.70;;;7.20;99.90;;;;;;5038683;28;20665;-86
2023/02/12 11:26:18;;;;;;;10.17;6.17;;;7.20;99.90;;;;;;5038195;28;20048;-85
2023/02/12 11:28:57;;;;;;;6.35;4.43;;;7.20;99.90;;;;;;5036814;28;20021;-84
2023/02/12 11:31:32;;;;;;;5.70;2.90;;;7.30;99.90;;;;;;5036277;28;21550;-84
2023/02/12 11:34:16;;;;;;;4.70;3.37;;;7.20;99.90;;;;;;5036449;28;20048;-87
2023/02/12 11:36:44;;;;;;;6.90;3.83;;;7.20;99.90;;;;;;5038793;28;20127;-87
2023/02/12 11:39:34;;;;;;;9.00;5.87;;;7.30;99.90;;;;;;5038162;28;20486;-87
2023/02/12 11:42:28;;;;;;;7.37;4.60;;;7.40;99.90;;;;;;5039513;28;20037;-87
2023/02/12 11:44:56;;;;;;;8.33;4.20;;;7.60;99.90;;;;;;5037672;28;20038;-86
2023/02/12 11:47:29;;;;;;;7.17;3.60;;;7.70;99.90;;;;;;5036970;28;20497;-86
2023/02/12 11:50:07;;;;;;;12.57;3.70;;;7.70;99.90;;;;;;5043371;28;20071;-86
2023/02/12 11:52:35;;;;;;;8.00;5.43;;;7.80;99.90;;;;;;5039567;28;20059;-87
2023/02/12 11:55:17;;;;;;;8.90;3.67;;;8.00;99.90;;;;;;5038818;28;20025;-86
2023/02/12 11:57:47;;;;;;;6.90;2.90;;;8.10;99.90;;;;;;5040945;28;20028;-85
2023/02/12 12:00:28;;;;;;;3.47;2.40;;;8.40;99.90;;;;;;5041409;28;20382;-86
2023/02/12 12:03:01;;;;;;;7.47;3.10;;;8.60;99.90;;;;;;5045263;28;20402;-86
2023/02/12 12:05:34;;;;;;;6.83;3.20;;;9.00;99.90;;;;;;5038612;28;20021;-86
2023/02/12 12:08:06;;;;;;;6.23;3.60;;;9.20;99.90;;;;;;5042568;28;20118;-86
2023/02/12 12:10:46;;;;;;;8.80;6.40;;;9.40;99.90;;;;;;5038504;28;20075;-87
2023/02/12 12:13:23;;;;;;;18.60;11.47;;;9.50;99.90;;;;;;5044898;28;20047;-87
2023/02/12 12:21:51;;;;;;;10.47;7.47;;;9.80;99.90;;;;;;5041262;28;20047;-88
2023/02/12 12:24:23;;;;;;;33.63;22.43;;;9.90;99.90;;;;;;5038547;28;20470;-88
2023/02/12 12:26:59;;;;;;;6.13;3.50;;;10.10;99.90;;;;;;5038563;28;20025;-87
2023/02/12 12:29:31;;;;;;;4.27;2.80;;;10.20;99.90;;;;;;5041652;28;20856;-88
2023/02/12 12:32:03;;;;;;;5.20;3.80;;;10.10;99.90;;;;;;5041503;28;20022;-88
2023/02/12 12:34:29;;;;;;;4.53;3.30;;;10.10;99.90;;;;;;5039436;28;20102;-88
2023/02/12 12:37:22;;;;;;;3.27;2.30;;;10.10;99.90;;;;;;5038241;28;20026;-87
2023/02/12 12:40:24;;;;;;;5.10;2.50;;;10.00;99.90;;;;;;5036650;28;20466;-87
2023/02/12 12:43:19;;;;;;;6.27;4.57;;;9.90;99.90;;;;;;5039337;28;20063;-87
2023/02/12 12:46:08;;;;;;;17.80;12.60;;;9.90;99.90;;;;;;5039791;28;20029;-87
2023/02/12 12:48:52;;;;;;;7.80;5.47;;;9.80;99.90;;;;;;5037951;28;20020;-87
2023/02/12 12:51:55;;;;;;;7.70;4.97;;;9.60;99.90;;;;;;5037610;28;20026;-87
2023/02/12 12:54:25;;;;;;;7.23;4.60;;;9.50;99.90;;;;;;5039337;28;20103;-88
2023/02/12 12:57:38;;;;;;;7.60;4.77;;;9.50;99.90;;;;;;5036714;28;20028;-88
2023/02/12 13:00:23;;;;;;;8.23;5.67;;;9.50;99.90;;;;;;5030594;28;20033;-88
2023/02/12 13:03:10;;;;;;;8.53;5.87;;;9.50;99.90;;;;;;5037218;28;20013;-89
2023/02/12 13:05:47;;;;;;;8.13;5.53;;;9.50;99.90;;;;;;5043504;28;20092;-89
2023/02/12 13:08:38;;;;;;;9.50;6.43;;;9.60;99.90;;;;;;5034527;28;20036;-82
2023/02/12 13:11:33;;;;;;;11.43;6.63;;;9.50;99.90;;;;;;5047157;28;20144;-83
2023/02/12 13:14:27;;;;;;;11.25;7.78;;;9.60;99.90;;;;;;5064849;28;20052;-83
2023/02/12 13:17:08;;;;;;;11.73;7.40;;;9.70;99.90;;;;;;5036165;28;20038;-83